createdAt,value
2019-04-14T00:02:57.706Z,2.10
2019-04-14T00:05:28.220Z,2.10
2019-04-14T00:07:58.726Z,2.10
2019-04-14T00:10:33.258Z,2.10
2019-04-14T00:13:08.858Z,2.10
2019-04-14T00:15:44.847Z,2.00
2019-04-14T00:18:16.454Z,2.00
2019-04-14T00:20:57.751Z,2.00
2019-04-14T00:23:28.843Z,2.00
2019-04-14T00:26:29.438Z,2.00
2019-04-14T00:29:04.450Z,1.90
2019-04-14T00:31:39.111Z,1.90
2019-04-14T00:34:48.575Z,1.90
2019-04-14T00:37:33.692Z,1.90
2019-04-14T00:40:45.353Z,1.80
2019-04-14T00:43:41.749Z,1.80
2019-04-14T00:46:21.787Z,1.80
2019-04-14T00:48:51.870Z,1.80
2019-04-14T00:51:24.399Z,1.70
2019-04-14T00:53:55.626Z,1.70
2019-04-14T00:56:26.374Z,1.70
2019-04-14T00:58:58.230Z,1.70
2019-04-14T01:01:28.543Z,1.70
2019-04-14T01:04:01.167Z,1.60
2019-04-14T01:06:33.604Z,1.60
2019-04-14T01:09:26.080Z,1.60
2019-04-14T01:11:57.435Z,1.60
2019-04-14T01:14:31.959Z,1.60
2019-04-14T01:17:02.755Z,1.50
2019-04-14T01:19:33.100Z,1.50
2019-04-14T01:22:05.338Z,1.50
2019-04-14T01:24:36.730Z,1.50
2019-04-14T01:27:10.209Z,1.50
2019-04-14T01:29:40.513Z,1.50
2019-04-14T01:32:17.721Z,1.50
2019-04-14T01:34:51.147Z,1.40
2019-04-14T01:37:20.302Z,1.40
2019-04-14T01:40:49.285Z,1.40
2019-04-14T01:43:19.118Z,1.40
2019-04-14T01:46:09.661Z,1.40
2019-04-14T01:48:32.481Z,1.40
2019-04-14T01:51:11.542Z,1.30
2019-04-14T01:54:01.909Z,1.40
2019-04-14T01:56:51.381Z,1.30
2019-04-14T01:59:24.081Z,1.30
2019-04-14T02:01:59.016Z,1.30
2019-04-14T02:04:31.290Z,1.30
2019-04-14T02:07:01.641Z,1.30
2019-04-14T02:09:35.518Z,1.30
2019-04-14T02:12:08.336Z,1.20
2019-04-14T02:14:40.857Z,1.20
2019-04-14T02:17:11.347Z,1.20
2019-04-14T02:23:13.079Z,1.20
2019-04-14T02:25:45.238Z,1.20
2019-04-14T02:28:37.537Z,1.20
2019-04-14T02:31:43.308Z,1.20
2019-04-14T02:34:27.775Z,1.10
2019-04-14T02:50:08.002Z,1.10
2019-04-14T02:52:35.333Z,1.00
2019-04-14T02:55:04.253Z,1.00
2019-04-14T02:57:44.865Z,1.00
2019-04-14T03:00:18.837Z,1.00
2019-04-14T03:02:51.483Z,1.00
2019-04-14T03:05:27.018Z,1.00
2019-04-14T03:08:00.074Z,1.00
2019-04-14T03:10:34.084Z,1.00
2019-04-14T03:13:21.292Z,1.00
2019-04-14T03:15:44.832Z,1.00
2019-04-14T03:18:47.263Z,1.00
2019-04-14T03:21:21.189Z,1.00
2019-04-14T03:23:56.324Z,1.00
2019-04-14T03:26:51.937Z,1.00
2019-04-14T03:29:21.657Z,1.00
2019-04-14T03:33:14.234Z,1.00
2019-04-14T03:34:43.465Z,1.00
2019-04-14T03:39:43.709Z,1.00
2019-04-14T03:42:12.764Z,1.00
2019-04-14T03:44:43.567Z,1.00
2019-04-14T03:47:19.622Z,1.00
2019-04-14T03:50:04.286Z,1.00
2019-04-14T03:52:31.296Z,1.00
2019-04-14T03:54:52.278Z,1.00
2019-04-14T03:57:10.346Z,1.00
2019-04-14T03:59:39.499Z,1.00
2019-04-14T04:02:10.051Z,1.00
2019-04-14T04:04:40.181Z,1.00
2019-04-14T04:07:10.588Z,1.00
2019-04-14T04:09:54.085Z,1.00
2019-04-14T04:12:24.611Z,1.00
2019-04-14T04:14:55.318Z,1.00
2019-04-14T04:18:24.033Z,1.00
2019-04-14T04:22:04.181Z,1.00
2019-04-14T04:49:34.656Z,1.20
2019-04-14T04:52:13.985Z,1.30
2019-04-14T04:54:47.426Z,1.30
2019-04-14T04:57:19.987Z,1.40
2019-04-14T05:00:02.949Z,1.50
2019-04-14T05:02:39.361Z,1.50
2019-04-14T05:06:04.667Z,1.60
2019-04-14T05:09:18.799Z,1.70
2019-04-14T05:12:37.356Z,1.80
2019-04-14T05:15:40.738Z,1.90
2019-04-14T05:18:40.374Z,2.00
2019-04-14T05:21:43.095Z,2.10
2019-04-14T05:24:35.353Z,2.10
2019-04-14T05:27:23.251Z,2.20
2019-04-14T05:30:13.273Z,2.30
2019-04-14T05:33:40.544Z,2.40
2019-04-14T05:36:12.832Z,2.40
2019-04-14T05:38:51.804Z,2.50
2019-04-14T05:42:04.963Z,2.60
2019-04-14T05:50:48.969Z,2.90
2019-04-14T05:57:19.938Z,3.00
2019-04-14T06:04:24.837Z,3.20
2019-04-14T06:07:17.783Z,3.30
2019-04-14T06:10:01.377Z,3.30
2019-04-14T06:16:15.631Z,3.30
2019-04-14T06:21:59.606Z,3.40
2019-04-14T06:25:24.162Z,3.40
2019-04-14T06:28:56.088Z,3.50
2019-04-14T06:32:15.373Z,3.50
2019-04-14T06:35:15.156Z,3.60
2019-04-14T06:42:49.535Z,3.60
2019-04-14T06:48:59.790Z,3.80
2019-04-14T06:52:02.921Z,4.00
2019-04-14T06:58:24.273Z,4.30
2019-04-14T07:01:44.110Z,4.40
2019-04-14T07:04:35.772Z,4.60
2019-04-14T07:16:28.538Z,5.00
2019-04-14T07:22:51.394Z,5.20
2019-04-14T07:25:43.644Z,5.30
2019-04-14T07:44:15.099Z,5.90
2019-04-14T07:47:44.856Z,6.10
2019-04-14T07:51:09.390Z,6.20
2019-04-14T07:53:51.451Z,6.30
2019-04-14T08:00:00.777Z,6.50
2019-04-14T08:02:42.135Z,6.60
2019-04-14T08:05:34.126Z,6.60
2019-04-14T08:11:57.424Z,6.70
2019-04-14T08:14:30.894Z,6.80
2019-04-14T08:19:43.668Z,7.10
2019-04-14T08:22:19.812Z,7.20
2019-04-14T08:27:50.546Z,7.40
2019-04-14T08:30:50.501Z,7.50
2019-04-14T08:44:14.828Z,7.60
2019-04-14T08:47:35.532Z,7.80
2019-04-14T08:59:57.619Z,8.60
2019-04-14T09:03:28.182Z,8.80
2019-04-14T09:06:48.151Z,8.90
2019-04-14T09:10:24.166Z,9.00
2019-04-14T09:13:23.225Z,9.20
2019-04-14T09:15:59.058Z,9.30
2019-04-14T09:18:29.867Z,9.20
2019-04-14T09:21:44.078Z,9.20
2019-04-14T09:24:17.473Z,9.20
2019-04-14T09:26:51.170Z,9.20
2019-04-14T09:29:31.464Z,9.20
2019-04-14T09:32:02.542Z,9.30
2019-04-14T09:34:32.063Z,9.40
2019-04-14T09:37:12.455Z,9.50
2019-04-14T09:39:50.227Z,9.70
2019-04-14T09:42:21.057Z,9.70
2019-04-14T09:45:16.661Z,9.80
2019-04-14T09:47:57.339Z,9.80
2019-04-14T09:50:37.015Z,9.90
2019-04-14T09:53:07.191Z,10.00
2019-04-14T09:55:43.722Z,10.20
2019-04-14T09:58:18.228Z,10.30
2019-04-14T10:00:50.736Z,10.30
2019-04-14T10:03:38.123Z,10.40
2019-04-14T10:06:13.604Z,10.50
2019-04-14T10:08:50.573Z,10.50
2019-04-14T10:11:19.692Z,10.60
2019-04-14T10:13:57.095Z,10.60
2019-04-14T10:16:29.611Z,10.60
2019-04-14T10:19:26.275Z,10.70
2019-04-14T10:22:01.627Z,10.70
2019-04-14T10:24:37.433Z,10.80
2019-04-14T10:27:17.857Z,10.80
2019-04-14T10:30:02.131Z,10.90
2019-04-14T10:32:45.565Z,11.00
2019-04-14T10:35:29.863Z,11.00
2019-04-14T10:38:11.826Z,11.10
2019-04-14T10:40:54.499Z,11.10
2019-04-14T10:43:48.496Z,11.10
2019-04-14T10:46:34.174Z,11.10
2019-04-14T10:49:08.928Z,11.10
2019-04-14T10:51:43.474Z,11.10
2019-04-14T10:54:18.109Z,11.10
2019-04-14T10:56:53.042Z,11.10
2019-04-14T10:59:31.303Z,11.10
2019-04-14T11:02:05.303Z,11.20
2019-04-14T11:04:53.602Z,11.30
2019-04-14T11:07:38.877Z,11.40
2019-04-14T11:10:45.959Z,11.40
2019-04-14T11:13:23.261Z,11.40
2019-04-14T11:15:57.187Z,11.60
2019-04-14T11:18:36.414Z,11.70
2019-04-14T11:21:42.442Z,11.70
2019-04-14T11:25:06.900Z,11.80
2019-04-14T11:27:39.726Z,11.90
2019-04-14T11:30:21.968Z,11.90
2019-04-14T11:33:17.793Z,11.90
2019-04-14T11:39:35.717Z,11.90
2019-04-14T11:42:52.907Z,11.80
2019-04-14T11:45:29.084Z,11.80
2019-04-14T11:48:29.762Z,11.80
2019-04-14T11:51:34.462Z,11.90
2019-04-14T11:54:16.621Z,12.00
2019-04-14T11:56:56.753Z,12.10
2019-04-14T12:00:37.194Z,12.10
2019-04-14T12:03:22.926Z,12.20
2019-04-14T12:06:11.830Z,12.30
2019-04-14T12:09:08.237Z,12.50
2019-04-14T12:11:43.464Z,12.80
2019-04-14T12:14:14.321Z,12.90
2019-04-14T12:16:51.902Z,13.00
2019-04-14T12:19:32.201Z,13.10
2019-04-14T12:22:09.334Z,13.10
2019-04-14T12:24:43.975Z,13.10
2019-04-14T12:27:16.225Z,13.10
2019-04-14T12:29:53.011Z,13.00
2019-04-14T12:32:29.321Z,13.10
2019-04-14T12:34:58.796Z,13.10
2019-04-14T12:37:30.755Z,13.00
2019-04-14T12:40:38.901Z,12.90
2019-04-14T12:43:33.241Z,12.90
2019-04-14T12:46:32.379Z,12.90
2019-04-14T12:49:11.619Z,12.90
2019-04-14T12:52:21.002Z,12.90
2019-04-14T12:54:49.583Z,12.90
2019-04-14T12:57:31.990Z,12.90
2019-04-14T13:00:03.224Z,12.90
2019-04-14T13:02:36.988Z,12.90
2019-04-14T13:05:16.093Z,12.90
2019-04-14T13:07:58.280Z,12.90
2019-04-14T13:10:49.191Z,12.80
2019-04-14T13:16:56.773Z,12.70
2019-04-14T13:19:34.089Z,12.60
2019-04-14T13:22:12.236Z,12.60
2019-04-14T13:24:49.083Z,12.70
2019-04-14T13:27:23.226Z,12.70
2019-04-14T13:30:32.312Z,12.70
2019-04-14T13:33:03.128Z,12.70
2019-04-14T13:35:36.460Z,12.70
2019-04-14T13:38:08.205Z,12.70
2019-04-14T13:44:20.765Z,12.50
2019-04-14T13:46:57.437Z,12.40
2019-04-14T13:52:45.757Z,12.30
2019-04-14T13:55:25.212Z,12.30
2019-04-14T13:57:58.372Z,12.20
2019-04-14T14:00:59.758Z,12.20
2019-04-14T14:03:29.417Z,12.10
2019-04-14T14:06:13.905Z,12.00
2019-04-14T14:08:43.553Z,11.90
2019-04-14T14:11:38.717Z,11.90
2019-04-14T14:14:23.968Z,12.00
2019-04-14T14:17:06.376Z,12.00
2019-04-14T14:20:33.607Z,12.10
2019-04-14T14:23:13.145Z,12.10
2019-04-14T14:25:49.496Z,12.00
2019-04-14T14:28:20.025Z,12.00
2019-04-14T14:30:54.073Z,11.90
2019-04-14T14:33:25.285Z,11.80
2019-04-14T14:35:56.435Z,11.70
2019-04-14T14:38:27.696Z,11.60
2019-04-14T14:41:02.438Z,11.60
2019-04-14T14:43:32.629Z,11.60
2019-04-14T14:46:36.772Z,11.50
2019-04-14T14:49:24.991Z,11.40
2019-04-14T14:52:08.742Z,11.40
2019-04-14T14:54:49.351Z,11.30
2019-04-14T14:57:18.669Z,11.20
2019-04-14T14:59:58.266Z,11.20
2019-04-14T15:02:36.677Z,11.20
2019-04-14T15:05:12.450Z,11.20
2019-04-14T15:08:11.300Z,11.20
2019-04-14T15:10:41.989Z,11.10
2019-04-14T15:13:13.594Z,11.00
2019-04-14T15:15:48.405Z,11.00
2019-04-14T15:18:22.752Z,10.90
2019-04-14T15:21:14.354Z,11.30
2019-04-14T15:23:44.399Z,12.30
2019-04-14T15:26:47.980Z,13.50
2019-04-14T15:29:20.796Z,14.40
2019-04-14T15:32:08.019Z,15.10
2019-04-14T15:34:43.394Z,15.50
2019-04-14T15:37:39.550Z,15.80
2019-04-14T15:40:20.433Z,16.10
2019-04-14T15:42:59.136Z,16.30
2019-04-14T15:45:34.634Z,16.40
2019-04-14T15:48:06.677Z,16.70
2019-04-14T15:50:59.874Z,16.80
2019-04-14T15:53:37.733Z,17.20
2019-04-14T15:56:09.306Z,17.60
2019-04-14T15:59:14.761Z,17.90
2019-04-14T16:02:08.269Z,17.90
2019-04-14T16:04:42.994Z,17.80
2019-04-14T16:07:29.086Z,17.80
2019-04-14T16:10:55.094Z,17.70
2019-04-14T16:14:07.056Z,17.60
2019-04-14T16:17:34.743Z,17.70
2019-04-14T16:20:08.625Z,17.70
2019-04-14T16:22:40.861Z,17.10
2019-04-14T16:25:13.041Z,16.10
2019-04-14T16:28:06.439Z,15.70
2019-04-14T16:30:55.486Z,15.40
2019-04-14T16:34:05.078Z,14.50
2019-04-14T16:36:36.537Z,13.50
2019-04-14T16:39:13.808Z,12.60
2019-04-14T16:42:06.683Z,11.90
2019-04-14T16:45:07.338Z,11.40
2019-04-14T16:47:43.083Z,10.90
2019-04-14T16:50:35.576Z,10.50
2019-04-14T16:57:52.741Z,10.00
2019-04-14T17:01:03.760Z,9.70
2019-04-14T17:04:08.362Z,9.50
2019-04-14T17:21:14.375Z,8.50
2019-04-14T17:23:54.074Z,8.40
2019-04-14T17:26:41.679Z,8.30
2019-04-14T17:29:33.754Z,8.20
2019-04-14T17:32:26.788Z,8.10
2019-04-14T17:35:16.566Z,8.10
2019-04-14T17:41:28.150Z,8.00
2019-04-14T17:44:10.939Z,7.90
2019-04-14T17:46:59.438Z,7.80
2019-04-14T17:50:03.147Z,7.70
2019-04-14T17:53:26.398Z,7.70
2019-04-14T17:56:04.769Z,7.60
2019-04-14T17:58:42.795Z,7.50
2019-04-14T18:01:48.797Z,7.40
2019-04-14T18:04:43.168Z,7.30
2019-04-14T18:07:27.551Z,7.30
2019-04-14T18:10:38.796Z,7.20
2019-04-14T18:13:22.338Z,7.10
2019-04-14T18:16:34.221Z,7.00
2019-04-14T18:19:31.798Z,7.00
2019-04-14T18:22:04.409Z,6.90
2019-04-14T18:24:42.763Z,6.80
2019-04-14T18:27:13.999Z,6.80
2019-04-14T18:33:23.589Z,6.60
2019-04-14T18:36:15.813Z,6.60
2019-04-14T18:39:50.408Z,6.50
2019-04-14T18:46:43.485Z,6.40
2019-04-14T18:50:25.122Z,6.30
2019-04-14T18:53:37.255Z,6.20
2019-04-14T18:59:32.498Z,6.00
2019-04-14T19:02:03.583Z,5.90
2019-04-14T19:04:34.478Z,5.90
2019-04-14T19:07:09.267Z,5.80
2019-04-14T19:09:42.031Z,5.80
2019-04-14T19:12:40.845Z,5.70
2019-04-14T19:15:49.652Z,5.70
2019-04-14T19:18:34.894Z,5.60
2019-04-14T19:24:01.214Z,5.60
2019-04-14T19:26:35.964Z,5.50
2019-04-14T19:29:10.711Z,5.50
2019-04-14T19:31:45.965Z,5.40
2019-04-14T19:34:17.344Z,5.40
2019-04-14T19:36:53.718Z,5.40
2019-04-14T19:39:26.829Z,5.30
2019-04-14T19:41:59.946Z,5.30
2019-04-14T19:44:36.694Z,5.30
2019-04-14T19:47:14.303Z,5.20
2019-04-14T19:49:48.237Z,5.20
2019-04-14T19:52:24.509Z,5.10
2019-04-14T19:54:55.393Z,5.10
2019-04-14T19:57:29.415Z,5.10
2019-04-14T20:00:06.560Z,5.00
2019-04-14T20:02:38.009Z,5.00
2019-04-14T20:05:17.518Z,4.90
2019-04-14T20:07:48.195Z,4.90
2019-04-14T20:10:19.982Z,4.90
2019-04-14T20:12:56.524Z,4.90
2019-04-14T20:15:34.562Z,4.80
2019-04-14T20:18:23.914Z,4.80
2019-04-14T20:21:15.157Z,4.70
2019-04-14T20:23:51.852Z,4.70
2019-04-14T20:26:45.923Z,4.70
2019-04-14T20:29:24.906Z,4.60
2019-04-14T20:32:05.238Z,4.60
2019-04-14T20:34:41.717Z,4.60
2019-04-14T20:37:17.614Z,4.50
2019-04-14T20:39:47.067Z,4.50
2019-04-14T20:42:22.486Z,4.50
2019-04-14T20:44:56.409Z,4.40
2019-04-14T20:47:27.487Z,4.40
2019-04-14T20:49:58.443Z,4.40
2019-04-14T20:52:29.433Z,4.40
2019-04-14T20:55:02.802Z,4.30
2019-04-14T20:57:34.897Z,4.40
2019-04-14T21:00:07.510Z,4.30
2019-04-14T21:02:54.226Z,4.30
2019-04-14T21:06:00.521Z,4.30
2019-04-14T21:08:58.717Z,4.30
2019-04-14T21:11:48.097Z,4.20
2019-04-14T21:14:35.054Z,4.20
2019-04-14T21:17:15.236Z,4.20
2019-04-14T21:20:09.415Z,4.20
2019-04-14T21:22:45.590Z,4.20
2019-04-14T21:25:36.846Z,4.10
2019-04-14T21:28:29.106Z,4.10
2019-04-14T21:31:24.694Z,4.10
2019-04-14T21:34:07.034Z,4.10
2019-04-14T21:37:15.300Z,4.00
2019-04-14T21:40:15.423Z,4.00
2019-04-14T21:42:50.383Z,4.00
2019-04-14T21:45:21.378Z,4.00
2019-04-14T21:47:59.521Z,4.00
2019-04-14T21:50:30.164Z,3.90
2019-04-14T21:53:00.605Z,3.90
2019-04-14T21:55:35.000Z,3.90
2019-04-14T21:58:21.930Z,3.90
2019-04-14T22:05:25.205Z,3.80
2019-04-14T22:08:21.331Z,3.80
2019-04-14T22:11:27.550Z,3.80
2019-04-14T22:14:33.238Z,3.80
2019-04-14T22:17:05.625Z,3.80
2019-04-14T22:19:37.370Z,3.70
2019-04-14T22:22:50.581Z,3.70
2019-04-14T22:25:19.557Z,3.70
2019-04-14T22:27:48.471Z,3.70
2019-04-14T22:30:20.057Z,3.70
2019-04-14T22:32:49.113Z,3.70
2019-04-14T22:35:17.941Z,3.80
2019-04-14T22:37:46.820Z,3.70
2019-04-14T22:40:16.168Z,3.70
2019-04-14T22:42:45.222Z,3.70
2019-04-14T22:45:14.513Z,3.70
2019-04-14T22:47:43.401Z,3.60
2019-04-14T22:50:12.698Z,3.60
2019-04-14T22:52:41.584Z,3.50
2019-04-14T22:55:10.697Z,3.50
2019-04-14T22:57:39.706Z,3.50
2019-04-14T23:00:12.086Z,3.40
2019-04-14T23:02:51.584Z,3.40
2019-04-14T23:05:29.790Z,3.40
2019-04-14T23:08:04.633Z,3.30
2019-04-14T23:11:00.504Z,3.30
2019-04-14T23:14:00.266Z,3.30
2019-04-14T23:16:46.748Z,3.30
2019-04-14T23:19:25.068Z,3.20
2019-04-14T23:21:59.535Z,3.20
2019-04-14T23:24:34.829Z,3.20
2019-04-14T23:27:03.768Z,3.20
2019-04-14T23:29:32.686Z,3.20
2019-04-14T23:32:01.556Z,3.20
2019-04-14T23:34:34.438Z,3.20
2019-04-14T23:37:03.494Z,3.20
2019-04-14T23:39:35.061Z,3.20
2019-04-14T23:42:03.808Z,3.10
2019-04-14T23:44:32.662Z,3.20
2019-04-14T23:47:01.601Z,3.10
2019-04-14T23:49:30.479Z,3.10
2019-04-14T23:51:59.353Z,3.10
2019-04-14T23:54:28.360Z,3.10
2019-04-14T23:57:05.464Z,3.00
2019-04-14T23:59:30.198Z,3.00
